Time;durP1;ratioP1;P1;durP2;ratioP2;P2;SDS_P1;SDS_P2;PMS_P1;PMS_P2;Temp;Humidity;BMP_temperature;BMP_pressure;BME280_temperature;BME280_humidity;BME280_pressure;Samples;Min_cycle;Max_cycle;Signal;HPM_P1;HPM_P2
2021/08/20 00:00:31;;;;;;;;;;;;;;;26.03;62.93;100827.81;5109348;28;1235;-60
2021/08/20 00:02:57;;;;;;;;;;;;;;;26.04;62.42;100830.34;5109033;28;905;-61
2021/08/20 00:05:25;;;;;;;;;;;;;;;26.03;62.99;100823.31;5109156;28;1350;-62
2021/08/20 00:07:52;;;;;;;;;;;;;;;26.04;62.79;100822.34;5108537;28;1980;-62
2021/08/20 00:10:19;;;;;;;;;;;;;;;26.05;62.79;100825.88;5108995;28;1329;-59
2021/08/20 00:12:54;;;;;;;;;;;;;;;26.04;62.83;100829.50;5090335;28;1295;-61
2021/08/20 00:15:22;;;;;;;;;;;;;;;26.04;62.58;100827.69;5108891;28;1264;-61
2021/08/20 00:17:49;;;;;;;;;;;;;;;26.04;63.13;100829.50;5108820;28;837;-61
2021/08/20 00:20:16;;;;;;;;;;;;;;;26.05;62.92;100828.53;5108937;28;1386;-61
2021/08/20 00:22:42;;;;;;;;;;;;;;;26.05;62.63;100831.22;5108620;28;719;-61
2021/08/20 00:25:09;;;;;;;;;;;;;;;26.04;62.93;100824.16;5108075;28;1314;-61
2021/08/20 00:27:36;;;;;;;;;;;;;;;26.04;62.82;100810.81;5107434;28;1972;-61
2021/08/20 00:30:07;;;;;;;;;;;;;;;26.05;63.15;100809.84;5108622;28;1009;-61
2021/08/20 00:32:35;;;;;;;;;;;;;;;26.04;62.98;100808.16;5108556;28;774;-61
2021/08/20 00:35:02;;;;;;;;;;;;;;;26.04;62.53;100803.66;5108407;28;1113;-61
2021/08/20 00:37:29;;;;;;;;;;;;;;;26.01;62.67;100800.41;5108504;28;1284;-61
2021/08/20 00:39:56;;;;;;;;;;;;;;;26.05;63.23;100801.84;5108384;28;1590;-61
2021/08/20 00:42:23;;;;;;;;;;;;;;;26.04;63.04;100797.47;5108455;28;1184;-60
2021/08/20 00:44:51;;;;;;;;;;;;;;;26.05;62.61;100793.84;5107915;28;972;-61
2021/08/20 00:47:18;;;;;;;;;;;;;;;26.03;63.04;100791.28;5089326;28;1914;-61
2021/08/20 00:49:46;;;;;;;;;;;;;;;26.04;62.91;100792.13;5108374;28;1044;-61
2021/08/20 00:52:13;;;;;;;;;;;;;;;26.04;63.08;100793.00;5108514;28;1216;-61
2021/08/20 00:54:40;;;;;;;;;;;;;;;26.03;63.14;100785.94;5108292;28;1024;-60
2021/08/20 00:57:07;;;;;;;;;;;;;;;26.04;62.73;100789.47;5108062;28;1240;-61
2021/08/20 00:59:33;;;;;;;;;;;;;;;26.04;62.81;100792.13;5107983;28;1075;-61
2021/08/20 01:02:03;;;;;;;;;;;;;;;26.05;62.97;100791.16;5108156;28;1216;-61
2021/08/20 01:04:30;;;;;;;;;;;;;;;26.05;62.95;100788.50;5108415;28;1038;-60
2021/08/20 01:06:58;;;;;;;;;;;;;;;26.05;62.96;100791.16;5107687;28;2044;-61
2021/08/20 01:09:25;;;;;;;;;;;;;;;26.04;62.65;100798.31;5107902;28;1062;-61
2021/08/20 01:11:52;;;;;;;;;;;;;;;26.05;62.50;100793.84;5107733;28;1609;-61
2021/08/20 01:14:32;;;;;;;;;;;;;;;26.05;62.85;100801.84;5107790;28;1058;-61
2021/08/20 01:17:03;;;;;;;;;;;;;;;26.06;62.86;100806.19;5107200;28;1255;-61
2021/08/20 01:19:34;;;;;;;;;;;;;;;26.06;62.64;100806.19;5107962;28;1050;-60
2021/08/20 01:22:01;;;;;;;;;;;;;;;26.07;62.58;100808.75;5107624;28;1232;-60
2021/08/20 01:24:28;;;;;;;;;;;;;;;26.06;62.86;100816.88;5089284;28;1331;-60
2021/08/20 01:26:55;;;;;;;;;;;;;;;26.05;62.74;100813.34;5107970;28;1913;-60
2021/08/20 01:29:23;;;;;;;;;;;;;;;26.05;62.62;100816.00;5107871;28;1038;-60
2021/08/20 01:31:50;;;;;;;;;;;;;;;26.05;62.42;100807.19;5108070;28;1290;-60
2021/08/20 01:34:17;;;;;;;;;;;;;;;26.06;62.25;100819.53;5107616;28;1111;-60
2021/08/20 01:36:44;;;;;;;;;;;;;;;26.05;62.39;100824.03;5107881;28;1224;-59
2021/08/20 01:39:10;;;;;;;;;;;;;;;26.06;62.46;100816.88;5122932;28;1415;-60
2021/08/20 01:41:37;;;;;;;;;;;;;;;26.05;62.48;100815.19;5107843;28;1223;-59
2021/08/20 01:44:04;;;;;;;;;;;;;;;26.04;62.35;100808.16;5107755;28;1049;-60
2021/08/20 01:46:31;;;;;;;;;;;;;;;26.06;62.27;100817.72;5123192;27;1988;-60
2021/08/20 01:48:59;;;;;;;;;;;;;;;26.05;61.88;100812.53;5107667;28;1092;-60
2021/08/20 01:51:28;;;;;;;;;;;;;;;26.05;62.22;100809.84;5107480;28;1224;-60
2021/08/20 01:53:55;;;;;;;;;;;;;;;26.04;62.26;100813.50;5107595;28;758;-60
2021/08/20 01:56:22;;;;;;;;;;;;;;;26.04;62.03;100813.50;5107868;28;1282;-60
2021/08/20 01:58:50;;;;;;;;;;;;;;;26.05;62.01;100809.84;5107823;28;817;-60
2021/08/20 02:01:27;;;;;;;;;;;;;;;26.05;61.72;100809.84;5107218;28;1346;-60
2021/08/20 02:03:54;;;;;;;;;;;;;;;26.05;61.96;100809.84;5107237;28;1213;-60
2021/08/20 02:06:21;;;;;;;;;;;;;;;26.01;61.53;100793.25;5107730;28;1921;-60
2021/08/20 02:08:48;;;;;;;;;;;;;;;26.05;61.69;100804.53;5089047;28;1342;-60
2021/08/20 02:11:14;;;;;;;;;;;;;;;26.05;61.66;100809.84;5089264;28;1365;-60
2021/08/20 02:13:41;;;;;;;;;;;;;;;26.04;61.29;100802.81;5111123;28;813;-61
2021/08/20 02:16:09;;;;;;;;;;;;;;;26.04;61.73;100797.47;5110930;28;1381;-61
2021/08/20 02:18:35;;;;;;;;;;;;;;;26.04;61.38;100797.47;5110978;28;817;-60
2021/08/20 02:21:03;;;;;;;;;;;;;;;26.04;61.74;100787.66;5111511;28;1357;-60
2021/08/20 02:23:31;;;;;;;;;;;;;;;26.04;61.33;100786.81;5111491;28;1067;-60
2021/08/20 02:25:59;;;;;;;;;;;;;;;26.04;61.55;100778.78;5093001;28;1387;-60
2021/08/20 02:28:25;;;;;;;;;;;;;;;26.03;61.48;100785.94;5111115;28;1984;-60
2021/08/20 02:30:53;;;;;;;;;;;;;;;26.05;61.32;100788.50;5110867;28;1353;-62
2021/08/20 02:33:20;;;;;;;;;;;;;;;26.05;61.40;100788.50;5109989;28;790;-60
2021/08/20 02:35:47;;;;;;;;;;;;;;;26.05;61.56;100780.50;5059914;28;1390;-60
2021/08/20 02:38:14;;;;;;;;;;;;;;;26.03;61.12;100782.44;5110999;28;1152;-61
2021/08/20 02:40:41;;;;;;;;;;;;;;;26.03;61.19;100779.75;5110709;28;1664;-61
2021/08/20 02:43:08;;;;;;;;;;;;;;;26.04;61.46;100784.13;5110630;28;825;-61
2021/08/20 02:45:35;;;;;;;;;;;;;;;26.04;61.11;100774.31;5110879;28;1279;-61
2021/08/20 02:48:02;;;;;;;;;;;;;;;26.04;61.29;100776.13;5110957;28;1983;-61
2021/08/20 02:50:29;;;;;;;;;;;;;;;26.03;60.97;100779.75;5110671;28;1302;-61
2021/08/20 02:52:56;;;;;;;;;;;;;;;26.03;61.02;100771.75;5110336;28;786;-61
2021/08/20 02:55:22;;;;;;;;;;;;;;;26.04;61.60;100773.47;5110797;28;1255;-61
2021/08/20 02:57:49;;;;;;;;;;;;;;;26.04;61.59;100776.13;5110531;28;905;-61
2021/08/20 03:00:16;;;;;;;;;;;;;;;26.03;61.48;100774.44;5125903;27;1350;-60
2021/08/20 03:02:43;;;;;;;;;;;;;;;26.03;61.67;100769.09;5110524;28;758;-62
2021/08/20 03:05:10;;;;;;;;;;;;;;;26.04;61.41;100770.78;5110316;28;1227;-61
2021/08/20 03:07:37;;;;;;;;;;;;;;;26.03;61.53;100763.75;5110132;28;1985;-61
2021/08/20 03:10:04;;;;;;;;;;;;;;;26.03;61.26;100771.75;5110470;28;996;-61
2021/08/20 03:12:31;;;;;;;;;;;;;;;26.04;61.27;100766.28;5109915;28;1591;-60
2021/08/20 03:14:57;;;;;;;;;;;;;;;26.05;61.45;100769.81;5110040;28;1210;-62
2021/08/20 03:17:24;;;;;;;;;;;;;;;26.03;61.58;100775.28;5109383;28;1261;-62
2021/08/20 03:19:51;;;;;;;;;;;;;;;26.04;61.49;100763.63;5110134;28;1113;-61
2021/08/20 03:22:17;;;;;;;;;;;;;;;26.04;61.28;100765.44;5109388;28;1338;-61
2021/08/20 03:24:44;;;;;;;;;;;;;;;26.04;61.23;100766.28;5091019;28;1289;-62
2021/08/20 03:27:11;;;;;;;;;;;;;;;26.05;61.62;100761.81;5124787;27;1914;-61
2021/08/20 03:29:38;;;;;;;;;;;;;;;26.03;61.63;100753.91;5109826;28;906;-62
2021/08/20 03:32:05;;;;;;;;;;;;;;;26.05;61.26;100756.47;5109670;28;1315;-61
2021/08/20 03:34:32;;;;;;;;;;;;;;;26.04;61.49;100749.44;5109746;28;1053;-61
2021/08/20 03:36:59;;;;;;;;;;;;;;;26.03;61.17;100748.59;5108179;28;1227;-61
2021/08/20 03:39:26;;;;;;;;;;;;;;;26.03;61.27;100742.41;5109137;28;1561;-61
2021/08/20 03:41:53;;;;;;;;;;;;;;;26.03;61.71;100753.06;5090632;28;1303;-61
2021/08/20 03:44:20;;;;;;;;;;;;;;;26.06;61.48;100752.81;5109294;28;1081;-61
2021/08/20 03:46:46;;;;;;;;;;;;;;;26.03;61.32;100748.59;5109056;28;1982;-61
2021/08/20 03:49:13;;;;;;;;;;;;;;;26.04;61.63;100744.09;5109571;28;1108;-61
2021/08/20 03:51:40;;;;;;;;;;;;;;;26.04;61.73;100752.09;5090792;28;1354;-61
2021/08/20 03:54:06;;;;;;;;;;;;;;;26.04;61.66;100754.78;5109344;28;1084;-61
2021/08/20 03:56:33;;;;;;;;;;;;;;;26.05;61.58;100751.13;5109228;28;1334;-62
2021/08/20 03:59:00;;;;;;;;;;;;;;;26.04;61.48;100749.44;5109301;28;1037;-60
2021/08/20 04:01:27;;;;;;;;;;;;;;;26.04;61.42;100749.44;5109552;28;1223;-62
2021/08/20 04:03:54;;;;;;;;;;;;;;;26.04;61.75;100750.28;5109306;28;1179;-60
2021/08/20 04:06:21;;;;;;;;;;;;;;;26.05;61.49;100756.47;5108786;28;1293;-61
2021/08/20 04:08:47;;;;;;;;;;;;;;;26.05;61.56;100746.63;5109079;28;1918;-61
2021/08/20 04:11:15;;;;;;;;;;;;;;;26.04;61.64;100754.78;5109591;28;1342;-60
2021/08/20 04:13:45;;;;;;;;;;;;;;;26.04;61.32;100744.94;5109033;28;908;-61
2021/08/20 04:16:11;;;;;;;;;;;;;;;26.05;61.31;100745.78;5109156;28;1366;-61
2021/08/20 04:18:40;;;;;;;;;;;;;;;26.05;61.58;100748.47;5108440;28;800;-61
2021/08/20 04:21:07;;;;;;;;;;;;;;;26.03;61.66;100743.25;5108670;28;1381;-61
2021/08/20 04:23:34;;;;;;;;;;;;;;;26.03;61.60;100753.91;5108921;28;1007;-61
2021/08/20 04:26:01;;;;;;;;;;;;;;;26.03;61.71;100745.06;5109161;28;1377;-61
2021/08/20 04:28:28;;;;;;;;;;;;;;;26.03;61.35;100747.72;5108932;28;2011;-61
2021/08/20 04:30:55;;;;;;;;;;;;;;;26.03;61.33;100750.41;5108831;28;1377;-61
2021/08/20 04:33:22;;;;;;;;;;;;;;;26.01;61.17;100747.88;5108458;28;807;-61
2021/08/20 04:35:49;;;;;;;;;;;;;;;26.02;61.40;100743.41;5108166;28;1275;-61
2021/08/20 04:38:16;;;;;;;;;;;;;;;26.02;61.36;100746.06;5108168;28;719;-62
2021/08/20 04:40:43;;;;;;;;;;;;;;;26.02;61.49;100752.22;5090025;28;1445;-61
2021/08/20 04:43:09;;;;;;;;;;;;;;;26.03;61.45;100758.41;5108547;28;796;-61
2021/08/20 04:45:36;;;;;;;;;;;;;;;26.03;61.04;100763.75;5108726;28;1192;-61
2021/08/20 04:48:03;;;;;;;;;;;;;;;26.02;61.46;100764.75;5089902;28;1996;-62
2021/08/20 04:50:30;;;;;;;;;;;;;;;26.02;61.07;100762.91;5108239;28;1603;-61
2021/08/20 04:52:58;;;;;;;;;;;;;;;26.03;61.28;100763.75;5108369;28;779;-62
2021/08/20 04:55:25;;;;;;;;;;;;;;;26.03;61.06;100771.75;5108491;28;1299;-61
2021/08/20 04:57:51;;;;;;;;;;;;;;;26.02;60.98;100775.44;5108423;28;782;-61
2021/08/20 05:00:18;;;;;;;;;;;;;;;25.99;61.08;100768.50;5108403;28;1283;-61
2021/08/20 05:02:46;;;;;;;;;;;;;;;26.01;60.88;100773.72;5107338;28;1538;-61
2021/08/20 05:05:13;;;;;;;;;;;;;;;26.01;60.98;100776.41;5107784;28;1636;-61
2021/08/20 05:07:40;;;;;;;;;;;;;;;26.01;61.11;100777.25;5107954;28;1918;-62
2021/08/20 05:10:10;;;;;;;;;;;;;;;26.02;60.89;100786.09;5107869;28;1224;-61
2021/08/20 05:12:38;;;;;;;;;;;;;;;26.00;60.83;100786.22;5107715;28;794;-61
2021/08/20 05:15:08;;;;;;;;;;;;;;;26.00;61.08;100780.03;5107941;28;1891;-61
2021/08/20 05:17:35;;;;;;;;;;;;;;;26.00;60.97;100786.22;5108389;28;833;-61
2021/08/20 05:20:01;;;;;;;;;;;;;;;26.01;61.08;100784.41;5108186;28;1081;-61
2021/08/20 05:22:41;;;;;;;;;;;;;;;26.00;60.72;100791.56;5107826;28;1375;-61
2021/08/20 05:25:11;;;;;;;;;;;;;;;26.00;61.01;100796.91;5107759;28;1334;-61
2021/08/20 05:27:39;;;;;;;;;;;;;;;26.00;60.91;100799.56;5107937;28;1909;-61
2021/08/20 05:30:06;;;;;;;;;;;;;;;26.00;60.68;100802.22;5108056;28;1204;-61
2021/08/20 05:32:33;;;;;;;;;;;;;;;26.00;60.64;100802.22;5108050;28;779;-61
2021/08/20 05:35:02;;;;;;;;;;;;;;;26.00;60.64;100798.72;5108091;28;1057;-61
2021/08/20 05:37:29;;;;;;;;;;;;;;;26.01;60.95;100803.09;5107741;28;1382;-61
2021/08/20 05:39:56;;;;;;;;;;;;;;;25.99;60.61;100805.06;5107593;28;1581;-61
2021/08/20 05:42:23;;;;;;;;;;;;;;;25.99;60.93;100805.88;5107371;28;1242;-59
2021/08/20 05:44:51;;;;;;;;;;;;;;;26.01;60.72;100813.75;5108283;28;1077;-60
2021/08/20 05:47:19;;;;;;;;;;;;;;;26.00;60.89;100807.56;5111801;28;1910;-60
2021/08/20 05:49:45;;;;;;;;;;;;;;;25.99;60.75;100811.22;5111832;28;1184;-61
2021/08/20 05:52:12;;;;;;;;;;;;;;;26.00;60.77;100812.91;5111783;28;1228;-60
2021/08/20 05:54:39;;;;;;;;;;;;;;;26.00;60.75;100823.59;5111935;28;1115;-60
2021/08/20 05:57:06;;;;;;;;;;;;;;;25.99;60.45;100826.41;5111391;28;1310;-61
2021/08/20 05:59:32;;;;;;;;;;;;;;;25.99;60.72;100823.72;5111540;28;1045;-60
2021/08/20 06:01:59;;;;;;;;;;;;;;;25.99;60.81;100823.72;5111562;28;1239;-61
2021/08/20 06:04:27;;;;;;;;;;;;;;;26.00;60.78;100817.41;5111463;28;1583;-61
2021/08/20 06:06:53;;;;;;;;;;;;;;;26.00;60.51;100822.72;5092555;28;1240;-61
2021/08/20 06:09:20;;;;;;;;;;;;;;;26.00;60.43;100822.72;5111160;28;1910;-61
2021/08/20 06:11:47;;;;;;;;;;;;;;;25.99;60.36;100819.22;5126686;27;1375;-61
2021/08/20 06:14:13;;;;;;;;;;;;;;;25.99;60.37;100826.41;5111390;28;1233;-61
2021/08/20 06:16:40;;;;;;;;;;;;;;;25.99;60.61;100821.06;5110817;28;1185;-61
2021/08/20 06:19:07;;;;;;;;;;;;;;;25.99;60.55;100823.72;5110622;28;1105;-61
2021/08/20 06:21:34;;;;;;;;;;;;;;;25.99;60.83;100821.88;5110631;28;1287;-61
2021/08/20 06:24:00;;;;;;;;;;;;;;;25.99;60.81;100824.56;5111057;28;1096;-61
2021/08/20 06:26:27;;;;;;;;;;;;;;;25.98;61.07;100814.88;5111349;28;1272;-61
2021/08/20 06:28:54;;;;;;;;;;;;;;;26.00;60.82;100820.06;5111016;28;1984;-60
2021/08/20 06:31:21;;;;;;;;;;;;;;;26.00;60.86;100820.06;5111299;28;1223;-60
2021/08/20 06:33:48;;;;;;;;;;;;;;;26.00;60.50;100826.25;5111185;28;864;-61
2021/08/20 06:36:14;;;;;;;;;;;;;;;26.00;60.98;100828.94;5110302;28;1267;-62
2021/08/20 06:38:41;;;;;;;;;;;;;;;26.00;60.38;100828.06;5109937;28;703;-62
2021/08/20 06:41:08;;;;;;;;;;;;;;;26.00;60.70;100833.41;5110612;28;1658;-60
2021/08/20 06:43:34;;;;;;;;;;;;;;;26.00;60.99;100828.06;5111026;28;1195;-60
2021/08/20 06:46:01;;;;;;;;;;;;;;;26.00;61.04;100833.41;5111129;28;1272;-60
2021/08/20 06:48:28;;;;;;;;;;;;;;;26.00;60.98;100830.75;5110490;28;1913;-62
2021/08/20 06:50:55;;;;;;;;;;;;;;;26.00;61.05;100836.94;5092052;28;1268;-62
2021/08/20 06:53:21;;;;;;;;;;;;;;;26.00;60.91;100830.75;5110151;28;1048;-60
2021/08/20 06:55:48;;;;;;;;;;;;;;;25.99;60.89;100827.22;5110366;28;1368;-60
2021/08/20 06:58:15;;;;;;;;;;;;;;;26.07;61.13;100840.78;5090626;28;1529;-59
2021/08/20 07:00:42;;;;;;;;;;;;;;;26.04;61.02;100830.34;5109014;28;1549;-60
2021/08/20 07:03:09;;;;;;;;;;;;;;;26.05;61.25;100836.56;5125150;27;1042;-60
2021/08/20 07:05:36;;;;;;;;;;;;;;;26.06;61.09;100838.22;5110567;28;1333;-59
2021/08/20 07:08:05;;;;;;;;;;;;;;;26.05;60.83;100837.38;5110012;28;1909;-59
2021/08/20 07:10:33;;;;;;;;;;;;;;;26.07;61.13;100839.91;5125818;27;1336;-60
2021/08/20 07:13:01;;;;;;;;;;;;;;;26.08;61.30;100836.28;5110344;28;795;-60
2021/08/20 07:15:28;;;;;;;;;;;;;;;26.08;60.91;100842.44;5109225;28;1552;-59
2021/08/20 07:17:55;;;;;;;;;;;;;;;26.08;61.38;100841.63;5104951;28;1065;-60
2021/08/20 07:20:21;;;;;;;;;;;;;;;26.08;61.48;100842.44;5109170;28;1247;-61
2021/08/20 07:22:49;;;;;;;;;;;;;;;26.05;61.34;100839.22;5109025;28;822;-60
2021/08/20 07:25:16;;;;;;;;;;;;;;;26.08;61.54;100850.44;5109523;28;1361;-60
2021/08/20 07:27:43;;;;;;;;;;;;;;;26.08;60.99;100853.13;5108565;28;822;-62
2021/08/20 07:30:10;;;;;;;;;;;;;;;26.10;61.19;100861.00;5107760;28;1977;-60
2021/08/20 07:32:36;;;;;;;;;;;;;;;26.11;61.06;100860.03;5108700;28;1549;-60
2021/08/20 07:35:03;;;;;;;;;;;;;;;26.11;61.29;100856.53;5107970;28;1391;-62
2021/08/20 07:37:30;;;;;;;;;;;;;;;26.10;60.94;100861.00;5108433;28;1599;-61
2021/08/20 07:39:57;;;;;;;;;;;;;;;26.11;61.11;100862.72;5090351;28;1604;-62
2021/08/20 07:42:23;;;;;;;;;;;;;;;26.10;60.95;100866.34;5108900;28;1600;-61
2021/08/20 07:44:50;;;;;;;;;;;;;;;26.12;61.26;100875.06;5089986;28;1537;-61
2021/08/20 07:47:17;;;;;;;;;;;;;;;26.13;61.27;100871.44;5108430;28;1291;-62
2021/08/20 07:49:46;;;;;;;;;;;;;;;26.13;61.00;100876.75;5108350;28;1914;-57
2021/08/20 07:52:14;;;;;;;;;;;;;;;26.12;61.05;100879.56;5109011;28;1351;-57
2021/08/20 07:54:41;;;;;;;;;;;;;;;26.14;61.04;100880.28;5109469;28;914;-58
2021/08/20 07:57:07;;;;;;;;;;;;;;;26.13;61.01;100876.75;5109049;28;1161;-57
2021/08/20 07:59:34;;;;;;;;;;;;;;;26.14;60.39;100883.81;5109145;28;1352;-58
2021/08/20 08:02:01;;;;;;;;;;;;;;;26.10;59.90;100882.38;5109060;28;1244;-57
2021/08/20 08:04:28;;;;;;;;;;;;;;;26.10;59.45;100882.38;5109102;28;1044;-56
2021/08/20 08:06:55;;;;;;;;;;;;;;;26.08;59.04;100885.16;5109179;28;1302;-58
2021/08/20 08:09:21;;;;;;;;;;;;;;;26.04;59.80;100888.22;5107603;28;1993;-54
2021/08/20 08:11:48;;;;;;;;;;;;;;;26.03;59.63;100897.22;5089437;28;1256;-53
2021/08/20 08:14:15;;;;;;;;;;;;;;;26.05;59.84;100889.94;5109076;28;1145;-55
2021/08/20 08:16:42;;;;;;;;;;;;;;;26.06;60.05;100891.59;5108990;28;1278;-57
2021/08/20 08:19:08;;;;;;;;;;;;;;;26.06;59.88;100891.59;5108863;28;1083;-57
2021/08/20 08:21:38;;;;;;;;;;;;;;;26.07;60.07;100896.84;5109133;28;1236;-60
2021/08/20 08:24:06;;;;;;;;;;;;;;;26.03;60.34;100891.88;5073545;28;1232;-57
2021/08/20 08:26:32;;;;;;;;;;;;;;;26.11;60.59;100893.91;5109171;28;1184;-55
2021/08/20 08:28:59;;;;;;;;;;;;;;;26.11;60.86;100888.56;5108840;28;1977;-58
2021/08/20 08:31:26;;;;;;;;;;;;;;;26.13;60.71;100892.78;5108665;28;1224;-54
2021/08/20 08:33:53;;;;;;;;;;;;;;;26.10;60.91;100903.72;5108648;28;1061;-54
2021/08/20 08:36:20;;;;;;;;;;;;;;;26.16;61.01;100903.22;5123801;27;1312;-54
2021/08/20 08:38:46;;;;;;;;;;;;;;;26.16;61.21;100903.22;5089898;28;1268;-60
2021/08/20 08:41:13;;;;;;;;;;;;;;;26.20;61.77;100909.16;5108183;28;1491;-59
2021/08/20 08:43:41;;;;;;;;;;;;;;;26.12;61.97;100912.44;5108573;28;774;-59
2021/08/20 08:46:10;;;;;;;;;;;;;;;26.11;61.78;100908.09;5106781;28;1328;-59
2021/08/20 08:48:39;;;;;;;;;;;;;;;26.09;62.09;100897.53;5107942;28;1914;-58
2021/08/20 08:51:07;;;;;;;;;;;;;;;26.11;62.05;100900.09;5107839;28;1295;-60
2021/08/20 08:53:36;;;;;;;;;;;;;;;26.16;62.43;100897.03;5108138;28;1075;-61
2021/08/20 08:56:02;;;;;;;;;;;;;;;26.05;62.21;100901.44;5108323;28;1353;-60
2021/08/20 08:58:29;;;;;;;;;;;;;;;26.03;62.34;100902.53;5089495;28;1228;-60
2021/08/20 09:00:56;;;;;;;;;;;;;;;26.03;62.34;100906.06;5108057;28;1266;-59
2021/08/20 09:03:27;;;;;;;;;;;;;;;26.12;62.71;100896.41;5108393;28;770;-61
2021/08/20 09:05:55;;;;;;;;;;;;;;;26.11;62.94;100902.75;5107669;28;1553;-58
2021/08/20 09:08:23;;;;;;;;;;;;;;;26.16;62.74;100891.69;5107231;28;1921;-60
2021/08/20 09:10:51;;;;;;;;;;;;;;;26.18;62.50;100895.94;5107486;28;1368;-56
2021/08/20 09:13:19;;;;;;;;;;;;;;;26.23;62.40;100903.56;5107923;28;1020;-65
2021/08/20 09:15:46;;;;;;;;;;;;;;;26.29;62.41;100903.88;5107428;28;1365;-60
2021/08/20 09:18:21;;;;;;;;;;;;;;;26.18;62.81;100906.59;5107463;28;1178;-60
2021/08/20 09:20:49;;;;;;;;;;;;;;;26.16;63.07;100905.06;5109352;28;1348;-59
2021/08/20 09:23:20;;;;;;;;;;;;;;;26.17;63.08;100899.59;5111437;28;775;-59
2021/08/20 09:25:48;;;;;;;;;;;;;;;26.14;62.90;100912.31;5111518;28;1330;-60
2021/08/20 09:28:16;;;;;;;;;;;;;;;26.09;63.09;100905.53;5111989;28;1276;-59
2021/08/20 09:31:03;;;;;;;;;;;;;;;26.16;63.29;100918.41;5111934;27;1253;-58
2021/08/20 09:33:30;;;;;;;;;;;;;;;26.17;62.83;100914.75;5111134;28;1538;-60
2021/08/20 09:36:00;;;;;;;;;;;;;;;26.22;62.63;100912.53;5111703;28;1385;-60
2021/08/20 09:38:27;;;;;;;;;;;;;;;26.27;63.71;100905.81;5093135;28;777;-63
2021/08/20 09:40:58;;;;;;;;;;;;;;;26.29;64.41;100914.56;5104726;28;1609;-60
2021/08/20 09:43:36;;;;;;;;;;;;;;;26.26;63.96;100914.81;5074088;28;1595;-59
2021/08/20 09:46:09;;;;;;;;;;;;;;;26.20;64.24;100918.03;5074646;28;1633;-59
2021/08/20 09:48:38;;;;;;;;;;;;;;;26.23;64.30;100920.44;5081995;28;1989;-62
2021/08/20 09:51:30;;;;;;;;;;;;;;;26.24;64.54;100922.09;5090384;28;1350;-61
2021/08/20 09:54:03;;;;;;;;;;;;;;;26.24;63.84;100924.78;5089697;28;925;-60
2021/08/20 09:56:46;;;;;;;;;;;;;;;26.24;64.43;100924.78;5095867;28;1246;-60
2021/08/20 09:59:15;;;;;;;;;;;;;;;26.28;63.76;100918.19;5091304;28;1344;-61
2021/08/20 10:01:44;;;;;;;;;;;;;;;26.26;64.24;100930.84;5109874;28;1317;-61
2021/08/20 10:04:16;;;;;;;;;;;;;;;26.28;63.92;100933.38;5109931;28;1049;-61
2021/08/20 10:06:44;;;;;;;;;;;;;;;26.24;64.18;100930.13;5110040;28;1302;-60
2021/08/20 10:09:12;;;;;;;;;;;;;;;26.25;64.20;100936.31;5109687;28;1972;-60
2021/08/20 10:11:47;;;;;;;;;;;;;;;26.16;64.43;100935.28;5109837;28;1280;-61
2021/08/20 10:14:17;;;;;;;;;;;;;;;26.24;64.02;100932.78;5080713;28;1587;-60
2021/08/20 10:16:44;;;;;;;;;;;;;;;26.24;63.20;100943.47;5089086;28;1322;-61
2021/08/20 10:19:11;;;;;;;;;;;;;;;26.28;63.41;100944.06;5089154;28;1092;-60
2021/08/20 10:21:42;;;;;;;;;;;;;;;26.25;63.88;100944.31;5088276;28;1238;-62
2021/08/20 10:24:10;;;;;;;;;;;;;;;26.25;63.83;100946.97;5069751;28;1674;-62
2021/08/20 10:26:39;;;;;;;;;;;;;;;26.26;63.59;100952.22;5088375;28;1231;-62
2021/08/20 10:29:27;;;;;;;;;;;;;;;26.26;63.53;100948.69;5088564;28;1910;-62
2021/08/20 10:32:05;;;;;;;;;;;;;;;26.26;64.90;100951.34;5087424;28;1363;-62
2021/08/20 10:34:37;;;;;;;;;;;;;;;26.23;64.57;100957.81;5089154;28;1056;-62
2021/08/20 10:37:10;;;;;;;;;;;;;;;26.23;64.50;100951.63;5072012;28;1331;-62
2021/08/20 10:39:37;;;;;;;;;;;;;;;26.26;63.93;100952.22;5093832;28;1409;-62
2021/08/20 10:42:06;;;;;;;;;;;;;;;26.28;64.25;100952.91;5110462;28;1293;-62
2021/08/20 10:44:34;;;;;;;;;;;;;;;26.19;64.43;100956.38;5094449;28;1595;-62
2021/08/20 10:47:03;;;;;;;;;;;;;;;26.21;64.05;100949.06;5090108;28;1358;-62
2021/08/20 10:49:39;;;;;;;;;;;;;;;26.20;64.86;100944.72;5071570;28;1913;-63
2021/08/20 10:52:06;;;;;;;;;;;;;;;26.18;65.04;100948.47;5070764;28;1562;-62
2021/08/20 10:54:51;;;;;;;;;;;;;;;26.17;65.14;100955.66;5089891;28;1067;-63
2021/08/20 10:57:39;;;;;;;;;;;;;;;26.20;64.74;100949.22;5090238;28;1323;-62
2021/08/20 11:00:28;;;;;;;;;;;;;;;26.21;65.11;100954.41;5071596;28;1251;-63
2021/08/20 11:02:59;;;;;;;;;;;;;;;26.20;65.36;100949.22;5089681;28;712;-62
2021/08/20 11:05:37;;;;;;;;;;;;;;;26.22;65.36;100955.25;5089873;28;1264;-63
2021/08/20 11:08:25;;;;;;;;;;;;;;;26.21;65.65;100957.06;5071211;28;1310;-62
2021/08/20 11:10:55;;;;;;;;;;;;;;;26.19;65.52;100956.38;5070671;28;1922;-62
2021/08/20 11:13:25;;;;;;;;;;;;;;;26.20;65.89;100958.06;5063039;28;2180;-62
2021/08/20 11:15:56;;;;;;;;;;;;;;;26.16;66.56;100959.31;5089727;28;1287;-64
2021/08/20 11:18:40;;;;;;;;;;;;;;;26.17;66.22;100963.69;5071587;28;1499;-62
2021/08/20 11:21:07;;;;;;;;;;;;;;;26.18;66.38;100962.69;5089536;28;1267;-61
2021/08/20 11:23:35;;;;;;;;;;;;;;;26.25;66.63;100961.19;5070610;28;1196;-65
2021/08/20 11:26:25;;;;;;;;;;;;;;;26.29;66.02;100962.63;5089502;28;1176;-60
2021/08/20 11:28:56;;;;;;;;;;;;;;;26.23;66.67;100963.16;5087314;28;1930;-60
2021/08/20 11:31:23;;;;;;;;;;;;;;;26.25;66.35;100963.84;5088815;28;1353;-61
2021/08/20 11:33:51;;;;;;;;;;;;;;;26.28;66.70;100960.06;5096494;28;1252;-60
2021/08/20 11:36:21;;;;;;;;;;;;;;;26.32;66.40;100966.84;5102136;28;1389;-62
2021/08/20 11:38:52;;;;;;;;;;;;;;;26.33;66.38;100963.19;5074663;28;1541;-60
2021/08/20 11:41:40;;;;;;;;;;;;;;;26.34;66.20;100962.22;5108996;28;1507;-61
2021/08/20 11:44:10;;;;;;;;;;;;;;;26.31;66.80;100960.66;5105781;28;1641;-61
2021/08/20 11:46:39;;;;;;;;;;;;;;;26.33;65.28;100952.50;5088671;28;1342;-61
2021/08/20 11:49:10;;;;;;;;;;;;;;;26.35;66.11;100956.75;5107462;28;1979;-59
2021/08/20 11:51:40;;;;;;;;;;;;;;;26.34;65.99;100954.22;5088606;28;1334;-59
2021/08/20 11:54:12;;;;;;;;;;;;;;;26.38;65.62;100951.16;5107493;28;1601;-55
2021/08/20 11:56:54;;;;;;;;;;;;;;;26.37;65.88;100954.78;5072007;28;1458;-60
2021/08/20 11:59:23;;;;;;;;;;;;;;;26.34;64.64;100960.41;5101106;28;1196;-60
2021/08/20 12:01:55;;;;;;;;;;;;;;;26.42;66.85;100951.72;5087510;28;1322;-59
2021/08/20 12:04:35;;;;;;;;;;;;;;;26.39;66.83;100950.16;5106487;28;1117;-59
2021/08/20 12:07:04;;;;;;;;;;;;;;;26.42;66.85;100957.06;5106521;28;1307;-59
2021/08/20 12:09:35;;;;;;;;;;;;;;;26.41;66.08;100956.25;5071708;28;1898;-59
2021/08/20 12:12:04;;;;;;;;;;;;;;;26.43;66.73;100959.63;5107205;28;1263;-58
2021/08/20 12:14:55;;;;;;;;;;;;;;;26.42;64.43;100957.91;5107002;28;1272;-58
2021/08/20 12:17:23;;;;;;;;;;;;;;;26.47;66.38;100954.84;5108169;28;1225;-59
2021/08/20 12:19:52;;;;;;;;;;;;;;;26.46;65.64;100959.34;5105950;28;2257;-59
2021/08/20 12:22:33;;;;;;;;;;;;;;;26.45;64.61;100956.78;5106479;28;1279;-58
2021/08/20 12:25:13;;;;;;;;;;;;;;;26.43;66.12;100961.44;5104034;28;1422;-59
2021/08/20 12:27:42;;;;;;;;;;;;;;;26.42;63.33;100957.91;5107044;28;1195;-59
2021/08/20 12:30:10;;;;;;;;;;;;;;;26.47;65.15;100961.06;5097732;28;1976;-60
2021/08/20 12:32:40;;;;;;;;;;;;;;;26.50;64.90;100959.94;5082899;28;1303;-59
2021/08/20 12:35:07;;;;;;;;;;;;;;;26.53;66.01;100944.50;5084613;28;1331;-58
2021/08/20 12:38:08;;;;;;;;;;;;;;;26.52;64.72;100956.16;5066006;28;1212;-59
2021/08/20 12:40:41;;;;;;;;;;;;;;;26.56;66.64;100954.06;5064846;28;1670;-59
2021/08/20 12:43:21;;;;;;;;;;;;;;;26.55;64.45;100950.53;5066512;28;1209;-56
2021/08/20 12:46:19;;;;;;;;;;;;;;;26.62;67.37;100950.84;5086257;28;1398;-62
2021/08/20 12:48:54;;;;;;;;;;;;;;;26.67;65.59;100945.09;5071351;28;1097;-60
2021/08/20 12:51:26;;;;;;;;;;;;;;;26.70;66.44;100952.84;5086623;28;1971;-63
2021/08/20 12:54:00;;;;;;;;;;;;;;;26.68;66.59;100939.63;5087218;28;1248;-63
2021/08/20 12:56:37;;;;;;;;;;;;;;;26.76;65.30;100933.59;5065653;28;1268;-63